»·PEaware :: DLH446 KDEN-KSFO

DLH446 :: KDEN-KSFO

FLIGHT INFORMATION

Flight Status: Arrived
Operator:
Lufthansa
More flights by this operator :: More flights under this callsign
Pilot: Alfredo R. (12181)
Aircraft: Boeing 747-8
(B748)
More flights by this aircraft type
Origin: KDEN Denver Intl
United States
Destination: KSFO San Francisco Intl
United States
More flights between these airports :: More routes between these airports
Route: +COORZ3 VOAXA Q136 OAL INYOE DYAMD3
File this flight plan on PilotEdge
Remarks:
Altitude:
(Current/Filed)
40,000ft
Speed:
(Current/Filed)
480kts
Departed: 17-Sep-17 01:36 PM
Arrived: 17-Sep-17 03:52 PM
Distance/Time
Traveled:
839nm/2:16
Distance/Time
To Go:
Arrived

Flight Plot

Page will automatically refresh every two minutes.

Flight plan parsing failed; only flown route is shown


Map Options




Map Legend


Flown Route
Filed Route
Departure Airport
Arrival Airport
Navaid (VOR, NDB)
Fix

Horizontal Profiles

Position Reports

Time Latitude Longitude Heading Altitude Ground
Speed
17-Sep-17 12:52 39.854486 -104.674894 195 5446ft 0kts
17-Sep-17 12:53 39.854486 -104.674894 195 5446ft 0kts
17-Sep-17 12:54 39.854486 -104.674894 195 5446ft 0kts
17-Sep-17 12:55 39.854486 -104.674894 195 5446ft 0kts
17-Sep-17 12:56 39.854486 -104.674894 195 5446ft 0kts
17-Sep-17 12:57 39.854486 -104.674894 195 5446ft 0kts
17-Sep-17 12:58 39.854486 -104.674894 195 5446ft 0kts
17-Sep-17 12:59 39.854486 -104.674894 195 5446ft 0kts
17-Sep-17 13:00 39.854486 -104.674894 195 5446ft 0kts
17-Sep-17 13:01 39.854486 -104.674894 195 5446ft 0kts
17-Sep-17 13:02 39.854749 -104.674798 195 5446ft 1kts
17-Sep-17 13:03 39.855145 -104.674652 195 5446ft 1kts
17-Sep-17 13:04 39.855563 -104.674498 195 5446ft 1kts
17-Sep-17 13:05 39.855925 -104.674209 243 5446ft 1kts
17-Sep-17 13:06 39.855978 -104.673959 266 5446ft 0kts
17-Sep-17 13:07 39.855978 -104.673959 266 5446ft 0kts
17-Sep-17 13:08 39.855978 -104.673959 266 5446ft 0kts
17-Sep-17 13:09 39.855978 -104.673959 266 5446ft 0kts
17-Sep-17 13:10 39.855978 -104.673959 266 5446ft 0kts
17-Sep-17 13:11 39.855978 -104.673959 266 5446ft 0kts
17-Sep-17 13:12 39.855978 -104.673959 266 5446ft 0kts
17-Sep-17 13:13 39.855978 -104.673960 266 5446ft 0kts
17-Sep-17 13:14 39.855975 -104.674029 266 5446ft 2kts
17-Sep-17 13:15 39.855954 -104.676867 269 5446ft 15kts
17-Sep-17 13:16 39.855962 -104.682171 270 5446ft 14kts
17-Sep-17 13:17 39.855965 -104.682695 270 5446ft 0kts
17-Sep-17 13:18 39.855965 -104.682695 270 5446ft 0kts
17-Sep-17 13:19 39.855965 -104.682695 270 5446ft 0kts
17-Sep-17 13:20 39.855965 -104.682695 270 5446ft 0kts
17-Sep-17 13:21 39.855965 -104.682697 270 5446ft 0kts
17-Sep-17 13:22 39.855967 -104.683276 270 5446ft 5kts
17-Sep-17 13:23 39.857744 -104.683940 1 5446ft 14kts
17-Sep-17 13:24 39.861769 -104.683892 0 5446ft 21kts
17-Sep-17 13:25 39.867223 -104.683835 0 5446ft 24kts
17-Sep-17 13:26 39.872561 -104.683782 359 5446ft 24kts
17-Sep-17 13:27 39.875268 -104.684788 338 5446ft 10kts
17-Sep-17 13:28 39.877773 -104.684842 0 5446ft 12kts
17-Sep-17 13:29 39.881246 -104.684817 359 5446ft 18kts
17-Sep-17 13:30 39.886055 -104.684752 359 5446ft 23kts
17-Sep-17 13:31 39.891311 -104.684708 0 5446ft 20kts
17-Sep-17 13:32 39.895162 -104.684695 339 5446ft 10kts
17-Sep-17 13:33 39.895425 -104.685092 282 5446ft 0kts
17-Sep-17 13:34 39.895518 -104.687226 269 5446ft 16kts
17-Sep-17 13:35 39.895523 -104.692775 267 5446ft 19kts
17-Sep-17 13:36 39.895498 -104.694306 269 5446ft 0kts
17-Sep-17 13:37 39.895498 -104.694307 269 5446ft 0kts
17-Sep-17 13:38 39.895327 -104.695844 225 5446ft 11kts
17-Sep-17 13:39 39.893939 -104.696086 179 5446ft 0kts
17-Sep-17 13:40 39.889707 -104.696129 180 5446ft 63kts
17-Sep-17 13:41 39.854322 -104.696375 178 6113ft 169kts
17-Sep-17 13:42 39.827828 -104.728729 259 6529ft 219kts
17-Sep-17 13:43 39.822203 -104.795380 253 6816ft 261kts
17-Sep-17 13:44 39.819410 -104.880968 278 8461ft 292kts
17-Sep-17 13:45 39.831685 -104.966788 278 10657ft 300kts
17-Sep-17 13:46 39.847099 -105.058822 283 11611ft 356kts
17-Sep-17 13:47 39.870444 -105.165008 284 13513ft 387kts
17-Sep-17 13:48 39.896163 -105.282494 283 16392ft 396kts
17-Sep-17 13:49 39.903208 -105.394117 261 18897ft 395kts
17-Sep-17 13:50 39.887974 -105.487222 257 20601ft 402kts
17-Sep-17 13:51 39.870431 -105.636733 259 22714ft 414kts
17-Sep-17 13:52 39.856572 -105.756516 259 24347ft 423kts
17-Sep-17 13:53 39.845685 -105.879277 260 25774ft 430kts
17-Sep-17 13:54 39.836761 -105.986652 260 26822ft 436kts
17-Sep-17 13:55 39.822735 -106.148405 260 28377ft 445kts
17-Sep-17 13:56 39.810455 -106.285607 260 29660ft 454kts
17-Sep-17 13:57 39.799662 -106.405675 260 30748ft 462kts
17-Sep-17 13:58 39.786358 -106.552276 260 32019ft 467kts
17-Sep-17 13:59 39.770548 -106.697934 259 34476ft 445kts
17-Sep-17 14:00 39.754742 -106.838576 259 35708ft 442kts
17-Sep-17 14:01 39.738428 -106.985020 260 36606ft 443kts
17-Sep-17 14:02 39.722807 -107.124133 260 37369ft 443kts
17-Sep-17 14:03 39.706270 -107.270082 260 37989ft 442kts
17-Sep-17 14:04 39.688699 -107.422733 260 38522ft 442kts
17-Sep-17 14:05 39.671166 -107.573454 260 38900ft 443kts
17-Sep-17 14:06 39.653320 -107.725488 259 39229ft 443kts
17-Sep-17 14:07 39.635314 -107.878372 259 39610ft 440kts
17-Sep-17 14:08 39.616837 -108.032079 259 39895ft 438kts
17-Sep-17 14:09 39.598094 -108.185881 259 40006ft 437kts
17-Sep-17 14:10 39.578960 -108.341000 259 40008ft 440kts
17-Sep-17 14:11 39.559519 -108.497296 259 39998ft 442kts
17-Sep-17 14:12 39.540107 -108.651481 258 39979ft 444kts
17-Sep-17 14:13 39.520272 -108.808367 258 40009ft 447kts
17-Sep-17 14:14 39.501082 -108.958218 258 40029ft 449kts
17-Sep-17 14:15 39.481695 -109.106830 258 40042ft 452kts
17-Sep-17 14:16 39.461271 -109.262143 258 40047ft 454kts
17-Sep-17 14:17 39.440596 -109.418075 258 40048ft 457kts
17-Sep-17 14:18 39.420258 -109.569528 258 40035ft 459kts
17-Sep-17 14:19 39.400677 -109.713994 258 40037ft 451kts
17-Sep-17 14:20 39.381160 -109.858016 257 40062ft 442kts
17-Sep-17 14:21 39.361260 -110.001292 258 40095ft 439kts
17-Sep-17 14:22 39.342353 -110.143246 258 40163ft 440kts
17-Sep-17 14:23 39.323349 -110.285428 258 40161ft 440kts
17-Sep-17 14:24 39.304081 -110.426816 258 40159ft 440kts
17-Sep-17 14:25 39.284491 -110.568843 258 40158ft 440kts
17-Sep-17 14:26 39.264649 -110.711654 257 40166ft 440kts
17-Sep-17 14:27 39.244689 -110.855495 257 40164ft 440kts
17-Sep-17 14:28 39.224812 -110.996292 257 40163ft 439kts
17-Sep-17 14:29 39.203956 -111.142028 257 40161ft 439kts
17-Sep-17 14:30 39.182574 -111.290037 257 40158ft 440kts
17-Sep-17 14:31 39.160742 -111.439910 258 40159ft 441kts
17-Sep-17 14:32 39.138554 -111.590991 258 40140ft 441kts
17-Sep-17 14:33 39.116317 -111.741313 257 40089ft 441kts
17-Sep-17 14:34 39.093629 -111.894062 257 40090ft 443kts
17-Sep-17 14:35 39.070535 -112.046884 257 40087ft 443kts
17-Sep-17 14:36 39.047046 -112.200777 257 40079ft 443kts
17-Sep-17 14:37 39.023211 -112.355508 258 40087ft 445kts
17-Sep-17 14:38 38.999044 -112.511109 258 40082ft 445kts
17-Sep-17 14:39 38.974649 -112.666439 257 40087ft 445kts
17-Sep-17 14:40 38.950185 -112.822323 258 40091ft 448kts
17-Sep-17 14:41 38.925435 -112.977783 258 40100ft 448kts
17-Sep-17 14:42 38.900315 -113.133357 258 40099ft 448kts
17-Sep-17 14:43 38.874102 -113.287811 258 40094ft 449kts
17-Sep-17 14:44 38.847752 -113.444100 258 40101ft 450kts
17-Sep-17 14:45 38.821799 -113.600801 259 40094ft 450kts
17-Sep-17 14:46 38.796015 -113.756301 258 40102ft 450kts
17-Sep-17 14:47 38.769956 -113.911952 259 40100ft 451kts
17-Sep-17 14:48 38.744225 -114.063374 259 40119ft 448kts
17-Sep-17 14:49 38.718377 -114.214479 258 40144ft 443kts
17-Sep-17 14:50 38.692616 -114.363914 259 40138ft 451kts
17-Sep-17 14:51 38.665735 -114.518350 259 40132ft 451kts
17-Sep-17 14:52 38.639205 -114.669311 259 40138ft 452kts
17-Sep-17 14:53 38.612348 -114.822204 259 40138ft 452kts
17-Sep-17 14:54 38.584936 -114.976369 259 40137ft 453kts
17-Sep-17 14:55 38.557155 -115.130868 259 40135ft 453kts
17-Sep-17 14:56 38.529077 -115.285783 259 40136ft 453kts
17-Sep-17 14:57 38.500684 -115.441158 259 40132ft 453kts
17-Sep-17 14:58 38.471988 -115.597028 259 40135ft 453kts
17-Sep-17 14:59 38.443243 -115.752341 259 40139ft 454kts
17-Sep-17 15:00 38.414315 -115.907777 259 40123ft 454kts
17-Sep-17 15:01 38.384820 -116.064074 259 40113ft 455kts
17-Sep-17 15:02 38.355316 -116.219114 259 40115ft 454kts
17-Sep-17 15:03 38.324658 -116.375155 258 40117ft 456kts
17-Sep-17 15:04 38.289800 -116.529938 257 40114ft 456kts
17-Sep-17 15:05 38.254419 -116.684468 256 40108ft 457kts
17-Sep-17 15:06 38.219463 -116.839012 256 40113ft 457kts
17-Sep-17 15:07 38.184062 -116.993626 256 40104ft 457kts
17-Sep-17 15:08 38.148491 -117.147380 256 40094ft 457kts
17-Sep-17 15:09 38.112374 -117.302211 257 40096ft 457kts
17-Sep-17 15:10 38.078031 -117.451783 257 40064ft 443kts
17-Sep-17 15:11 38.043284 -117.601562 257 40099ft 446kts
17-Sep-17 15:12 38.011372 -117.737493 256 40104ft 447kts
17-Sep-17 15:13 37.988000 -117.890864 266 40104ft 444kts
17-Sep-17 15:14 37.974756 -118.045590 266 40011ft 443kts
17-Sep-17 15:15 37.959093 -118.197961 265 40053ft 443kts
17-Sep-17 15:16 37.942730 -118.347318 265 40202ft 446kts
17-Sep-17 15:17 37.925598 -118.502259 265 40196ft 446kts
17-Sep-17 15:18 37.909152 -118.649888 265 40101ft 439kts
17-Sep-17 15:19 37.892978 -118.788860 265 38767ft 418kts
17-Sep-17 15:20 37.876199 -118.931548 266 37362ft 422kts
17-Sep-17 15:21 37.859735 -119.074393 266 35927ft 424kts
17-Sep-17 15:22 37.843669 -119.213316 266 34569ft 428kts
17-Sep-17 15:23 37.827726 -119.348900 266 33391ft 420kts
17-Sep-17 15:24 37.811636 -119.485097 266 32254ft 419kts
17-Sep-17 15:25 37.795016 -119.624767 266 31115ft 423kts
17-Sep-17 15:26 37.778394 -119.763115 266 30010ft 422kts
17-Sep-17 15:27 37.762437 -119.893758 266 28902ft 416kts
17-Sep-17 15:28 37.746561 -120.023491 265 27851ft 418kts
17-Sep-17 15:29 37.730184 -120.155433 265 26747ft 411kts
17-Sep-17 15:30 37.713328 -120.290535 264 25622ft 414kts
17-Sep-17 15:31 37.696168 -120.427820 264 24478ft 401kts
17-Sep-17 15:32 37.680926 -120.557401 264 22922ft 370kts
17-Sep-17 15:33 37.666773 -120.679645 263 21508ft 360kts
17-Sep-17 15:34 37.653124 -120.795893 263 20402ft 358kts
17-Sep-17 15:35 37.639949 -120.904525 263 19352ft 353kts
17-Sep-17 15:36 37.626622 -121.010612 262 18297ft 346kts
17-Sep-17 15:37 37.612421 -121.116029 261 17228ft 344kts
17-Sep-17 15:38 37.598651 -121.218533 261 16186ft 342kts
17-Sep-17 15:39 37.585591 -121.322906 262 15121ft 342kts
17-Sep-17 15:40 37.573509 -121.428119 262 13944ft 316kts
17-Sep-17 15:41 37.562707 -121.521683 262 12802ft 295kts
17-Sep-17 15:42 37.552373 -121.609933 261 11748ft 290kts
17-Sep-17 15:43 37.535093 -121.691255 254 10771ft 269kts
17-Sep-17 15:44 37.515574 -121.772296 254 9701ft 262kts
17-Sep-17 15:45 37.497348 -121.848321 254 8651ft 256kts
17-Sep-17 15:46 37.499925 -121.920337 276 7686ft 250kts
17-Sep-17 15:47 37.504836 -121.997178 275 6626ft 246kts
17-Sep-17 15:48 37.508922 -122.069957 275 5427ft 223kts
17-Sep-17 15:49 37.515778 -122.129616 299 4357ft 205kts
17-Sep-17 15:50 37.536704 -122.179789 299 3357ft 181kts
17-Sep-17 15:51 37.555476 -122.224497 299 2333ft 146kts
17-Sep-17 15:52 37.571982 -122.263593 297 1691ft 140kts
17-Sep-17 15:53 37.588229 -122.302104 294 1029ft 138kts
17-Sep-17 15:54 37.603380 -122.338454 295 403ft 138kts
17-Sep-17 15:55 37.616660 -122.370374 298 28ft 73kts
17-Sep-17 15:56 37.618967 -122.378015 268 28ft 19kts
17-Sep-17 15:57 37.618953 -122.378510 267 28ft 6kts
17-Sep-17 15:58 37.615950 -122.380083 207 28ft 22kts
17-Sep-17 15:59 37.611654 -122.383232 239 28ft 24kts
17-Sep-17 16:00 37.611816 -122.387911 290 28ft 13kts
17-Sep-17 16:01 37.612210 -122.388906 299 28ft 0kts
17-Sep-17 16:02 37.612209 -122.388906 299 28ft 0kts
17-Sep-17 16:03 37.612209 -122.388906 299 28ft 0kts
17-Sep-17 16:04 37.612209 -122.388906 299 28ft 0kts

Navigation Log

Ident Type
Flight plan parsing failed, navigation log unavailable